Flight Track Log - Related Links

Times and Time Zones

All times are in EDT time to prevent confusion due to time zone crossing. See the JBU1329 flight status page for this flight to view local times or setup timezone preferences in your user account.

Time Position Orientation Groundspeed Altitude Reporting Facility
EDT Latitude Longitude Course Direction KTS MPH feet Rate Location/Type
Wed 08:50:16 42.3500 -71.0167 270° West 134 154 700  Level KA90
Wed 08:50:52 42.3333 -71.0500 236° Southwest 184 212 1,600 2,346 Climbing KA90
Wed 08:52:52 42.2600 -71.1861 234° Southwest 241 277 6,800 2,767 Climbing Boston Center
Wed 08:53:00 42.2893 -70.7328 228° Southwest  Level FlightAware Approximate
Wed 08:53:52 42.2300 -71.2850 248° West 264 304 9,900  Level Boston Center
Wed 08:54:00 42.2261 -70.8335 240° Southwest  Level FlightAware Approximate
Wed 08:54:52 42.1956 -71.3947 247° West 298 343 11,700  Level Boston Center
Wed 08:55:00 42.1833 -70.9502 270° West  Level FlightAware Approximate
Wed 08:55:52 42.1592 -71.5214 249° West 342 394 14,500  Level Boston Center
Wed 08:56:52 42.1308 -71.6506 254° West 361 415 17,600 2,750 Climbing Boston Center
Wed 08:57:52 42.1047 -71.7908 256° West 373 429 20,000 2,350 Climbing Boston Center
Wed 08:58:52 42.0803 -71.9253 256° West 378 435 22,300 1,950 Climbing Boston Center
Wed 08:59:52 42.0539 -72.0711 256° West 383 441 23,900 1,700 Climbing Boston Center
Wed 09:00:52 42.0292 -72.2164 257° West 395 455 25,700 1,400 Climbing Boston Center
Wed 09:01:52 42.0003 -72.3731 256° West 415 478 26,700 1,250 Climbing Boston Center
Wed 09:02:52 41.9689 -72.5322 255° West 429 494 28,200 1,600 Climbing Boston Center
Wed 09:03:52 41.9417 -72.6828 256° West 429 494 29,900 1,500 Climbing Boston Center
Wed 09:04:52 41.9100 -72.8389 255° West 429 494 31,200 1,050 Climbing Boston Center
Wed 09:05:52 41.8697 -72.9892 250° West 429 494 32,000 400 Climbing Boston Center
Wed 09:06:52 41.7833 -73.1389 232° Southwest 446 513 32,000  Level Boston Center
Wed 09:07:52 41.7056 -73.2714 232° Southwest 446 513 32,000  Level Boston Center
Wed 09:08:52 41.6314 -73.4011 233° Southwest 446 513 32,000  Level Boston Center
Wed 09:10:41 41.5044 -73.6078 231° Southwest 428 493 32,000  Level New York Center
Wed 09:11:40 41.4122 -73.7144 221° Southwest 428 493 32,000  Level New York Center
Wed 09:12:41 41.3222 -73.8183 221° Southwest 434 499 32,000  Level New York Center
Wed 09:13:39 41.2258 -73.9242 220° Southwest 444 511 32,000  Level New York Center
Wed 09:14:40 41.1311 -74.0300 220° Southwest 444 511 32,000 -98 Level New York Center
Wed 09:15:41 41.0389 -74.1328 220° Southwest 444 511 31,800 -992 Descending New York Center
Wed 09:16:41 40.9442 -74.2325 219° Southwest 446 513 30,000 -1,800 Descending New York Center
Wed 09:17:41 40.8539 -74.3319 220° Southwest 440 506 28,200 -992 Descending New York Center
Wed 09:18:42 40.7672 -74.4397 223° Southwest 435 501 28,000 -102 Descending New York Center
Wed 09:19:39 40.6922 -74.5644 232° Southwest 435 501 28,000 -821 Level New York Center
Wed 09:20:39 40.6153 -74.6886 231° Southwest 440 506 26,400 -1,650 Descending New York Center
Wed 09:21:39 40.5383 -74.8100 230° Southwest 440 506 24,700 -1,488 Descending New York Center
Wed 09:22:40 40.4639 -74.9147 227° Southwest 423 487 23,400 -836 Descending New York Center
Wed 09:23:41 40.3936 -75.0139 227° Southwest 397 457 23,000 -555 Descending New York Center
Wed 09:24:39 40.3233 -75.1103 226° Southwest 385 443 22,300 -1,169 Descending New York Center
Wed 09:25:39 40.2550 -75.2094 228° Southwest 379 436 20,700 -1,636 Descending New York Center
Wed 09:26:40 40.1761 -75.3131 225° Southwest 373 429 19,000 -1,339 Descending New York Center
Wed 09:27:40 40.1122 -75.4039 227° Southwest 356 410 18,000 -496 Descending New York Center
Wed 09:28:41 40.0525 -75.4867 227° Southwest 356 410 18,000 -50 Level New York Center
Wed 09:29:39 39.9822 -75.5794 225° Southwest 351 404 17,900 -454 Descending New York Center
Wed 09:30:40 39.9244 -75.6622 228° Southwest 351 404 17,100 -397 Descending New York Center
Wed 09:31:40 39.8725 -75.7586 235° Southwest 321 369 17,100 -355 Level New York Center
Wed 09:33:12 39.8000 -75.8833 233° Southwest 295 339 16,200 -986 Descending Potomac TRACON
Wed 09:34:06 39.7667 -75.9667 243° Southwest 288 331 14,700 -1,650 Descending Potomac TRACON
Wed 09:35:12 39.7167 -76.0667 237° Southwest 274 315 12,900 -1,339 Descending Potomac TRACON
Wed 09:36:07 39.6833 -76.1333 237° Southwest 272 313 12,000 -470 Descending Potomac TRACON
Wed 09:37:07 39.6333 -76.2167 232° Southwest 269 310 12,000 -700 Level Potomac TRACON
Wed 09:38:07 39.5833 -76.3000 232° Southwest 264 304 10,600 -1,736 Descending Potomac TRACON
Wed 09:39:08 39.5500 -76.3833 243° Southwest 268 308 8,500 -1,785 Descending Potomac TRACON
Wed 09:40:08 39.5167 -76.4500 237° Southwest 260 299 7,000 -1,474 Descending Potomac TRACON
Wed 09:41:02 39.4833 -76.5167 237° Southwest 254 292 5,700 -1,053 Descending Potomac TRACON
Wed 09:42:02 39.4333 -76.6000 232° Southwest 249 287 5,000 -842 Descending Potomac TRACON
Wed 09:42:56 39.4000 -76.6667 237° Southwest 248 285 4,100 -526 Descending Potomac TRACON
Wed 09:43:56 39.3667 -76.7333 237° Southwest 219 252 4,000 -50 Descending Potomac TRACON
Wed 09:44:57 39.3333 -76.8000 237° Southwest 204 235 4,000 -347 Level Potomac TRACON
Wed 09:45:57 39.2833 -76.8333 207° Southwest 215 247 3,300 -526 Descending Potomac TRACON
Wed 09:46:51 39.2333 -76.8500 194° South 208 239 3,000 -650 Descending Potomac TRACON
Wed 09:47:57 39.1833 -76.8167 153° Southeast 219 252 2,000 -900 Descending Potomac TRACON
Wed 09:48:51 39.1833 -76.7500 90° East 172 198 1,200 -789 Descending Potomac TRACON
Wed 09:49:51 39.1833 -76.7000 90° East 136 157 500 -700 Descending Potomac TRACON

Login

Don't have an account? Register now (free) for customized features, flight alerts, and more!